This is the latest recevied weather packets stored in our database for station/object IQ5KG. If no packets are shown the sender has not sent any weather packets the latest 1 day(s).
| Time | Temp. | Humidity | Pressure | Rain* | Wind** | Luminosity | Snow |
|---|---|---|---|---|---|---|---|
| 1778088755 | 17.22° C | 77% | 1011.1 hPa | 0 mm | - | - | - |
| 1778087855 | 17.22° C | 77% | 1011.1 hPa | 0 mm | - | - | - |
| 1778086954 | 16.67° C | 78% | 1011.3 hPa | 0 mm | - | - | - |
| 1778085154 | 17.78° C | 76% | 1011.1 hPa | 0 mm | - | - | - |
| 1778083354 | 18.33° C | 73% | 1011.1 hPa | 0 mm | - | - | - |
| 1778082453 | 18.33° C | 71% | 1011.1 hPa | 0.25 mm | - | - | - |
| 1778081554 | 17.78° C | 72% | 1011.2 hPa | 0.25 mm | - | - | - |
| 1778078853 | 16.67° C | 87% | 1010.7 hPa | 1.27 mm | - | - | - |
| 1778076151 | 17.78° C | 82% | 1010.9 hPa | 0 mm | - | - | - |
| 1778073451 | 17.78° C | 83% | 1011.2 hPa | 0 mm | - | - | - |
| 1778072552 | 17.22° C | 83% | 1011.3 hPa | 0 mm | - | - | - |
| 1778066251 | 16.67° C | 94% | 1010.5 hPa | 0.51 mm | - | - | - |
| 1778064450 | 16.11° C | 99% | 1010.5 hPa | 0 mm | - | - | - |
| 1778063550 | 16.11° C | 99% | 1010.6 hPa | 0 mm | - | - | - |
| 1778060850 | 16.11° C | 99% | 1010.9 hPa | 0 mm | - | - | - |
| 1778058149 | 15° C | 99% | 1010.8 hPa | 0 mm | - | - | - |
| 1778054550 | 14.44° C | 99% | 1010.9 hPa | 0 mm | - | - | - |
| 1778052748 | 14.44° C | 99% | 1011 hPa | 0 mm | - | - | - |
| 1778051848 | 13.89° C | 99% | 1010.7 hPa | 0 mm | - | - | - |
| 1778050049 | 13.89° C | 99% | 1010.8 hPa | 1.02 mm | - | - | - |
| 1778049147 | 13.89° C | 99% | 1010.7 hPa | 2.79 mm | - | - | - |
| 1778048247 | 13.89° C | 99% | 1010.8 hPa | 4.83 mm | - | - | - |
| 1778047348 | 13.89° C | 99% | 1010.6 hPa | 6.6 mm | - | - | - |
| 1778045547 | 13.33° C | 99% | 1010.9 hPa | 25.4 mm | - | - | - |
| 1778044647 | 13.33° C | 99% | 1010.9 hPa | 30.48 mm | - | - | - |
* Rain latest hour (hover to see other rain measurements)
** Current wind speed in m/s (hover to see current wind gust speed)